< < Back
Terminal Aerodrome Forecast


Current Version              Previous Versions:   1  2  3  4  5  6  7  8  9  

Terminal Aerodrome Forecast

853
FTUS42 KJAX 030216 AAB
TAFSSI
TAF AMD
KSSI 030216Z 0302/0324 19007KT P6SM SCT015 BKN050
      TEMPO 0302/0306 BKN015
     FM030900 21005KT P6SM BKN015
     FM031400 25010KT P6SM SCT035 BKN050
     FM031800 22012KT P6SM VCTS BKN040CB=



Latest METAR

623
SAUS70 KWBC 030800 RRU
MTRSSI
METAR KSSI 031153Z AUTO 25007KT 10SM CLR 23/21 A2991 RMK AO2 SLP128
T02280211 10239 20222 51006


USA.gov is the U.S. government's official web portal to all federal, state and local government web resources and services.